< Typhoon 198213 1982 Season Typhoon 198215 >
Typhoon 198214 (FAYE)
General InformationTrack Information on Google MapsDetailed Wind InformationList of All Images || Disaster Info.ResourceGoogle EarthGE AnimationAtom FeedGeoJSON
Detalied Best Track (Time Zone = UTC)
Year Month Day Hour Lat. Long. Pressure (hPa) Wind (kt) Class Image Chart
1982 8 20 00 12.0 124.0 1004 0 2 Image Chart
1982 8 20 06 12.0 123.0 1004 0 2 Image Chart
1982 8 20 12 12.0 122.0 1004 0 2 Image Chart
1982 8 20 18 12.0 121.5 1004 0 2 Image Chart
1982 8 21 00 12.0 121.0 1004 0 2 Image Chart
1982 8 21 06 12.0 120.6 1004 0 2 Image Chart
1982 8 21 12 12.0 120.3 1004 0 2 Image Chart
1982 8 21 18 12.0 119.9 1004 0 2 Image Chart
1982 8 22 00 12.0 119.5 1004 0 2 Image Chart
1982 8 22 06 12.2 119.3 996 0 2 Image Chart
1982 8 22 12 12.3 119.2 980 45 3 Image Chart
1982 8 22 18 12.5 119.0 970 50 4 Image Chart
1982 8 23 00 12.6 118.8 970 70 5 Image Chart
1982 8 23 06 12.7 118.7 960 70 5 Image Chart
1982 8 23 12 12.8 118.6 960 80 5 Image Chart
1982 8 23 18 12.9 119.0 960 80 5 Image Chart
1982 8 24 00 13.3 119.5 960 70 5 Image Chart
1982 8 24 06 13.8 119.7 960 70 5 Image Chart
1982 8 24 12 14.8 119.8 970 70 5 Image Chart
1982 8 24 18 15.8 119.7 970 70 5 Image Chart
1982 8 25 00 17.0 119.9 980 60 4 Image Chart
1982 8 25 06 18.0 119.9 985 55 4 Image Chart
1982 8 25 12 18.8 120.1 990 40 3 Image Chart
1982 8 25 18 19.3 120.3 985 50 4 Image Chart
1982 8 26 00 19.8 120.6 985 50 4 Image Chart
1982 8 26 06 20.6 121.3 992 45 3 Image Chart
1982 8 26 12 21.1 122.0 996 35 3 Image Chart
1982 8 26 18 21.4 123.0 998 35 3 Image Chart
1982 8 27 00 21.8 124.0 1000 0 2 Image Chart
1982 8 27 06 22.3 125.2 1000 0 2 Image Chart
1982 8 27 12 22.8 126.6 1000 0 2 Image Chart
1982 8 27 18 23.2 128.0 1000 0 2 Image Chart
1982 8 28 00 23.7 129.5 998 35 3 Image Chart
1982 8 28 06 23.9 130.6 994 35 3 Image Chart
1982 8 28 12 24.0 131.3 990 40 3 Image Chart
1982 8 28 18 24.1 131.8 985 45 3 Image Chart
1982 8 29 00 24.2 132.2 980 55 4 Image Chart
1982 8 29 06 24.1 132.2 980 55 4 Image Chart
1982 8 29 12 24.0 132.1 985 55 4 Image Chart
1982 8 29 18 23.8 132.0 985 55 4 Image Chart
1982 8 30 00 23.5 132.0 990 45 3 Image Chart
1982 8 30 06 23.3 132.0 992 40 3 Image Chart
1982 8 30 12 23.0 131.8 996 40 3 Image Chart
1982 8 30 18 22.8 131.9 996 40 3 Image Chart
1982 8 31 00 22.8 131.7 996 40 3 Image Chart
1982 8 31 06 22.9 131.6 996 40 3 Image Chart
1982 8 31 12 23.0 131.2 1000 0 2 Image Chart
1982 8 31 18 23.0 130.4 1000 0 2 Image Chart
1982 9 1 00 23.0 129.5 1000 0 2 Image Chart
1982 9 1 06 23.0 128.7 1000 0 2 Image Chart
1982 9 1 12 23.0 128.0 1000 0 2 Image Chart
1982 9 1 18 23.0 127.0 1000 0 2 Image Chart
1982 9 2 00 23.0 126.0 1000 0 2 Image Chart
1982 9 2 06 22.5 124.5 1000 0 2 Image Chart
1982 9 2 12 22.5 123.5 1000 0 2 Image Chart
1982 9 2 18 21.8 122.7 1002 0 2 Image Chart
1982 9 3 00 21.0 122.0 1004 0 2 Image Chart
1982 9 3 06 20.5 121.5 1004 0 2 Image Chart
Japan Meteorological Agency Best Track Data | Correction Date : 1992-10-21
< Typhoon 198213 1982 Season Typhoon 198215 >

Help